AST - Astoria Rgnl

Pirep is a free, collaborative database of all public and private airports located within the United States. All pilots are welcome to contribute, edit, and improve any airport they have local knowledge about, no registration required.
Uploaded photos will be licensed under a CC BY-SA 4.0 license. Please only upload photos you have the rights to use.
Tags
Public
METAR / TAF
Car Rental
Events
Edit Tags
Food
Camping
Lodging
Bicycles
Swimming
Golfing
Fishing
Hot Springs
Museum
Flying Clubs
Airpark
Upcoming Events
*
*
*

Where exactly on/near the airport is this event taking place?

Is there a webpage with more information for this event?

Who should be contacted for more information?

What is this event all about?

Repeat every
Description
Last updated: 2024-05-24 00:07:13 PDT
Transient Parking
Fuel Location
Landing & Tie-down Fees
Crew Car Availability
Last updated: 2024-05-21 10:59:24 PDT
Flying Clubs
WiFi Access
Airport Statistics
Location: Astoria, OR
Elevation: 14ft
Sectional: Seattle
Activation date: Jul 1938
Fuel: 100LL, A (prices)
Runway 08/26: 5,794ft
Runway 14/32: 4,467ft
Access: Open to the public
Current Weather — MVFR
  • Weather data is strictly informational and not for flight planning purposes.
  • METAR
    2024-06-17 05:55:00 PDT
    Ceiling Wind Temperature Dewpoint Weather Visbility
    3,700ft 310° @ 9kt 53°F 48°F Light rain 5SM
    Clouds: Few @ 2,800ft, Broken @ 3,700ft, Overcast @ 4,500ft
    Raw: KAST 171255Z AUTO 31009KT 5SM -RA FEW028 BKN037 OVC045 12/09 A3006 RMK AO2 RAB52 SLP180 P0000 T01220089 $
  • TAF
    2024-06-17 05:00:00 PDT – 2024-06-17 12:00:00 PDT
    Ceiling Wind Weather Visbility
    2,500ft 290° @ 8kt Light rain showers 6SM
    Clouds: Scattered @ 1,500ft, Broken @ 2,500ft, Overcast @ 3,500ft
    Raw: KAST 171131Z 1712/1812 29008KT P6SM -SHRA SCT015 BKN025 OVC035 FM171900 28010KT P6SM SCT035 FM180400 27005KT P6SM BKN025
  • TAF
    2024-06-17 12:00:00 PDT – 2024-06-17 21:00:00 PDT
    Ceiling Wind Weather Visbility
    Sky clear 280° @ 10kt N/A 6SM
    Clouds: Scattered @ 3,500ft
    Raw: KAST 171131Z 1712/1812 29008KT P6SM -SHRA SCT015 BKN025 OVC035 FM171900 28010KT P6SM SCT035 FM180400 27005KT P6SM BKN025
  • TAF
    2024-06-17 21:00:00 PDT – 2024-06-18 05:00:00 PDT
    Ceiling Wind Weather Visbility
    2,500ft 270° @ 5kt N/A 6SM
    Clouds: Broken @ 2,500ft
    Raw: KAST 171131Z 1712/1812 29008KT P6SM -SHRA SCT015 BKN025 OVC035 FM171900 28010KT P6SM SCT035 FM180400 27005KT P6SM BKN025
Click/tap to add an annotation marker to the map
Airport Webcams
No webcams added yet.
Direct links to live image URLs will be displayed inline on this page. URLs to separate webpages will be linked to.
URL:
Direct links to live image URLs will be displayed inline on this page. URLs to separate webpages will be linked to.
URL:
Remarks
  • Estabd prior to 1959.
  • Migratory flocks of waterfowl on & invof arpt.
  • High concentration hel opns in area.
  • (e94) sawrs.
  • Rwy 14/32 has basic markings with side stripes.
  • For cd if una to ctc on fss freq, ctc seattle artcc at 253-351-3694.
  • Actvt mirl rwy 08/26 & ry 14/32, malsr rwy 26 and reil rwy 08 - ctaf.
  • For fuel outside nml working hrs ctc fbo 503-298-7531.
Comments
Leave a comment What was your experience like at this airport?